Time;durP1;ratioP1;P1;durP2;ratioP2;P2;SDS_P1;SDS_P2;PMS_P1;PMS_P2;Temp;Humidity;BMP_temperature;BMP_pressure;BME280_temperature;BME280_humidity;BME280_pressure;Samples;Min_cycle;Max_cycle;Signal;HPM_P1;HPM_P2
2023/06/16 00:00:11;;;;;;;5.77;5.20;;;;;;;;;;5054873;28;20666;-65
2023/06/16 00:02:41;;;;;;;5.37;4.97;;;;;;;;;;5053360;28;20644;-65
2023/06/16 00:05:10;;;;;;;5.63;5.13;;;;;;;;;;5052368;28;20640;-63
2023/06/16 00:07:39;;;;;;;5.70;5.20;;;;;;;;;;5065215;28;20643;-61
2023/06/16 00:10:09;;;;;;;8.53;5.17;;;;;;;;;;5051899;28;20644;-66
2023/06/16 00:12:38;;;;;;;6.20;5.60;;;;;;;;;;5042723;28;20664;-63
2023/06/16 00:15:08;;;;;;;5.70;5.20;;;;;;;;;;5053611;28;20636;-65
2023/06/16 00:17:44;;;;;;;5.93;5.37;;;;;;;;;;5053432;28;20647;-61
2023/06/16 00:20:13;;;;;;;5.93;4.83;;;;;;;;;;5053740;28;20630;-62
2023/06/16 00:22:47;;;;;;;7.20;5.27;;;;;;;;;;5053932;28;20703;-63
2023/06/16 00:25:18;;;;;;;5.67;5.27;;;;;;;;;;5053130;28;20620;-63
2023/06/16 00:27:46;;;;;;;5.13;4.67;;;;;;;;;;5067687;28;20718;-66
2023/06/16 00:30:14;;;;;;;5.30;4.70;;;;;;;;;;5062168;28;20667;-64
2023/06/16 00:32:43;;;;;;;6.30;5.70;;;;;;;;;;5054528;28;20659;-63
2023/06/16 00:35:11;;;;;;;6.63;6.10;;;;;;;;;;5038464;28;20688;-61
2023/06/16 00:37:39;;;;;;;5.73;4.97;;;;;;;;;;5063197;28;20682;-62
2023/06/16 00:40:08;;;;;;;5.80;5.27;;;;;;;;;;5072031;28;20647;-63
2023/06/16 00:42:38;;;;;;;5.73;5.20;;;;;;;;;;5062761;28;20672;-61
2023/06/16 00:45:06;;;;;;;6.30;5.67;;;;;;;;;;5053396;28;20644;-63
2023/06/16 00:47:35;;;;;;;7.33;6.23;;;;;;;;;;5053768;28;20620;-62
2023/06/16 00:50:03;;;;;;;5.70;4.70;;;;;;;;;;5039613;28;20645;-63
2023/06/16 00:52:35;;;;;;;5.73;5.23;;;;;;;;;;5053413;28;20627;-61
2023/06/16 00:55:08;;;;;;;6.30;5.27;;;;;;;;;;5052689;28;20628;-64
2023/06/16 00:57:38;;;;;;;5.27;4.77;;;;;;;;;;5065743;28;20634;-61
2023/06/16 01:00:11;;;;;;;6.40;4.97;;;;;;;;;;5071290;28;20622;-65
2023/06/16 01:02:40;;;;;;;6.20;5.10;;;;;;;;;;5052836;28;20651;-65
2023/06/16 01:05:09;;;;;;;6.13;5.53;;;;;;;;;;5035032;28;20700;-65
2023/06/16 01:07:41;;;;;;;5.97;5.47;;;;;;;;;;5047034;28;20641;-66
2023/06/16 01:10:11;;;;;;;6.63;5.70;;;;;;;;;;5053608;28;20739;-66
2023/06/16 01:12:46;;;;;;;5.33;4.93;;;;;;;;;;5034636;28;20633;-66
2023/06/16 01:15:17;;;;;;;5.00;4.60;;;;;;;;;;5045867;28;20613;-65
2023/06/16 01:17:46;;;;;;;6.53;5.10;;;;;;;;;;5040490;28;20612;-66
2023/06/16 01:20:16;;;;;;;5.33;4.83;;;;;;;;;;5045696;28;20623;-66
2023/06/16 01:22:53;;;;;;;6.07;5.53;;;;;;;;;;5049701;28;21203;-65
2023/06/16 01:25:24;;;;;;;6.13;5.57;;;;;;;;;;5033729;28;20608;-66
2023/06/16 01:27:53;;;;;;;9.17;5.20;;;;;;;;;;5048395;28;20609;-66
2023/06/16 01:30:24;;;;;;;6.27;5.67;;;;;;;;;;5053651;28;20742;-66
2023/06/16 01:32:53;;;;;;;7.13;5.53;;;;;;;;;;5054669;28;20936;-66
2023/06/16 01:35:23;;;;;;;5.37;4.90;;;;;;;;;;5047044;28;20643;-66
2023/06/16 01:37:54;;;;;;;5.43;5.03;;;;;;;;;;5035569;28;20608;-66
2023/06/16 01:40:25;;;;;;;5.10;4.70;;;;;;;;;;5034032;28;21058;-66
2023/06/16 01:42:54;;;;;;;7.30;5.17;;;;;;;;;;5032864;28;20623;-66
2023/06/16 01:45:24;;;;;;;6.20;5.53;;;;;;;;;;5033277;28;20612;-66
2023/06/16 01:47:53;;;;;;;5.90;5.40;;;;;;;;;;5034051;28;20611;-66
2023/06/16 01:50:21;;;;;;;7.17;5.77;;;;;;;;;;5033671;28;20978;-66
2023/06/16 01:52:51;;;;;;;5.70;4.90;;;;;;;;;;5032017;28;20594;-66
2023/06/16 01:55:19;;;;;;;5.87;5.37;;;;;;;;;;5031950;28;20615;-66
2023/06/16 01:57:49;;;;;;;9.10;5.40;;;;;;;;;;5033331;28;20627;-66
2023/06/16 02:00:20;;;;;;;5.97;5.50;;;;;;;;;;5015755;28;20618;-65
2023/06/16 02:02:52;;;;;;;5.97;5.23;;;;;;;;;;5032271;28;21008;-66
2023/06/16 02:05:23;;;;;;;5.80;5.10;;;;;;;;;;5032225;28;20572;-66
2023/06/16 02:07:54;;;;;;;6.30;5.33;;;;;;;;;;5033220;28;20620;-66
2023/06/16 02:10:23;;;;;;;5.57;5.03;;;;;;;;;;5026721;28;20673;-66
2023/06/16 02:12:52;;;;;;;5.77;5.37;;;;;;;;;;5042167;28;20649;-66
2023/06/16 02:15:21;;;;;;;10.33;5.20;;;;;;;;;;5051286;28;20623;-65
2023/06/16 02:17:51;;;;;;;5.30;4.90;;;;;;;;;;5042544;28;20627;-66
2023/06/16 02:20:20;;;;;;;5.90;5.40;;;;;;;;;;5014512;28;20616;-66
2023/06/16 02:22:49;;;;;;;4.87;4.47;;;;;;;;;;4999520;28;20721;-66
2023/06/16 02:25:17;;;;;;;6.17;5.07;;;;;;;;;;5047343;28;21395;-65
2023/06/16 02:27:46;;;;;;;5.93;5.33;;;;;;;;;;5046858;28;20583;-66
2023/06/16 02:30:16;;;;;;;6.07;5.43;;;;;;;;;;5032626;28;20623;-66
2023/06/16 02:32:48;;;;;;;5.40;4.90;;;;;;;;;;5045940;28;20661;-65
2023/06/16 02:35:16;;;;;;;8.07;6.13;;;;;;;;;;5050969;28;20663;-66
2023/06/16 02:37:52;;;;;;;9.10;6.17;;;;;;;;;;5039103;28;21022;-65
2023/06/16 02:40:20;;;;;;;5.40;4.80;;;;;;;;;;5031256;28;20595;-66
2023/06/16 02:42:49;;;;;;;6.73;5.93;;;;;;;;;;5045909;28;20713;-65
2023/06/16 02:45:19;;;;;;;6.07;5.63;;;;;;;;;;5046234;28;20627;-65
2023/06/16 02:47:49;;;;;;;6.37;4.93;;;;;;;;;;5050230;28;21088;-65
2023/06/16 02:50:17;;;;;;;5.80;5.30;;;;;;;;;;5033345;28;20638;-65
2023/06/16 02:52:48;;;;;;;8.70;5.60;;;;;;;;;;5043103;28;20954;-65
2023/06/16 02:55:18;;;;;;;6.23;5.50;;;;;;;;;;5050823;28;21133;-65
2023/06/16 02:57:52;;;;;;;6.47;5.87;;;;;;;;;;5040146;28;20614;-66
2023/06/16 03:00:22;;;;;;;6.17;5.67;;;;;;;;;;5030622;28;20626;-67
2023/06/16 03:03:17;;;;;;;6.17;5.57;;;;;;;;;;5043838;28;20680;-65
2023/06/16 03:05:50;;;;;;;6.83;5.63;;;;;;;;;;5032923;28;20592;-65
2023/06/16 03:08:20;;;;;;;8.13;5.20;;;;;;;;;;5030353;28;21173;-65
2023/06/16 03:10:48;;;;;;;8.83;5.60;;;;;;;;;;5033504;28;20654;-65
2023/06/16 03:13:24;;;;;;;6.13;5.67;;;;;;;;;;5033099;28;20595;-64
2023/06/16 03:15:56;;;;;;;6.13;5.63;;;;;;;;;;5032286;28;20606;-65
2023/06/16 03:18:24;;;;;;;11.70;5.40;;;;;;;;;;5010205;28;20601;-65
2023/06/16 03:20:53;;;;;;;5.77;5.37;;;;;;;;;;5047689;28;20594;-65
2023/06/16 03:23:27;;;;;;;5.70;5.20;;;;;;;;;;5031950;28;20619;-65
2023/06/16 03:25:56;;;;;;;7.73;5.57;;;;;;;;;;5031048;28;20624;-65
2023/06/16 03:28:27;;;;;;;6.50;5.70;;;;;;;;;;5042079;28;20603;-65
2023/06/16 03:30:58;;;;;;;9.47;5.80;;;;;;;;;;5018274;28;20591;-65
2023/06/16 03:33:42;;;;;;;7.07;6.40;;;;;;;;;;5030376;28;20559;-65
2023/06/16 03:36:10;;;;;;;8.07;5.73;;;;;;;;;;5030556;28;21054;-66
2023/06/16 03:38:43;;;;;;;7.00;6.33;;;;;;;;;;5029781;28;20602;-65
2023/06/16 03:41:11;;;;;;;6.53;5.40;;;;;;;;;;5031574;28;20593;-65
2023/06/16 03:43:40;;;;;;;5.90;5.43;;;;;;;;;;5029376;28;20644;-65
2023/06/16 03:46:10;;;;;;;11.33;5.80;;;;;;;;;;5031533;28;20626;-65
2023/06/16 03:48:38;;;;;;;8.10;6.43;;;;;;;;;;5029292;28;20616;-65
2023/06/16 03:51:07;;;;;;;8.90;5.90;;;;;;;;;;5030186;28;20667;-65
2023/06/16 03:53:35;;;;;;;8.30;5.83;;;;;;;;;;5030644;28;20622;-65
2023/06/16 03:56:03;;;;;;;6.50;6.00;;;;;;;;;;5030341;28;20583;-65
2023/06/16 03:58:31;;;;;;;5.80;5.20;;;;;;;;;;5029896;28;20612;-65
2023/06/16 04:01:00;;;;;;;8.77;5.97;;;;;;;;;;5039003;28;20600;-65
2023/06/16 04:03:29;;;;;;;14.13;6.30;;;;;;;;;;5030489;28;20660;-65
2023/06/16 04:05:58;;;;;;;6.93;5.60;;;;;;;;;;5036373;28;20599;-65
2023/06/16 04:08:26;;;;;;;9.37;6.40;;;;;;;;;;5044101;28;20968;-66
2023/06/16 04:10:57;;;;;;;6.87;6.17;;;;;;;;;;5028214;28;20643;-65
2023/06/16 04:13:27;;;;;;;7.00;5.93;;;;;;;;;;5031278;28;20586;-65
2023/06/16 04:15:55;;;;;;;6.50;6.00;;;;;;;;;;5038624;28;20620;-65
2023/06/16 04:18:23;;;;;;;5.90;5.40;;;;;;;;;;5032677;28;21140;-65
2023/06/16 04:20:53;;;;;;;6.53;5.63;;;;;;;;;;5030011;28;20625;-64
2023/06/16 04:23:21;;;;;;;9.10;6.10;;;;;;;;;;5049118;28;20637;-65
2023/06/16 04:25:50;;;;;;;6.20;5.70;;;;;;;;;;5045317;28;21218;-65
2023/06/16 04:28:21;;;;;;;7.80;6.73;;;;;;;;;;5040979;28;22566;-65
2023/06/16 04:30:56;;;;;;;8.10;6.20;;;;;;;;;;5046412;28;20579;-65
2023/06/16 04:33:25;;;;;;;11.00;6.77;;;;;;;;;;5039047;28;20587;-65
2023/06/16 04:35:56;;;;;;;6.13;5.63;;;;;;;;;;5044983;28;20662;-65
2023/06/16 04:38:27;;;;;;;5.90;5.40;;;;;;;;;;5036641;28;20594;-65
2023/06/16 04:40:58;;;;;;;7.00;5.90;;;;;;;;;;5037101;28;20590;-65
2023/06/16 04:43:28;;;;;;;7.17;6.47;;;;;;;;;;5047321;28;20636;-65
2023/06/16 04:45:57;;;;;;;8.70;6.43;;;;;;;;;;5034999;28;20594;-65
2023/06/16 04:48:26;;;;;;;9.73;6.30;;;;;;;;;;5036377;28;21012;-65
2023/06/16 04:50:57;;;;;;;6.10;5.50;;;;;;;;;;5030589;28;20632;-65
2023/06/16 04:53:26;;;;;;;6.87;5.60;;;;;;;;;;5032994;28;20591;-65
2023/06/16 04:55:54;;;;;;;8.43;5.57;;;;;;;;;;5039182;28;20641;-67
2023/06/16 04:58:22;;;;;;;6.67;5.77;;;;;;;;;;5038668;28;20620;-65
2023/06/16 05:00:51;;;;;;;5.83;5.17;;;;;;;;;;5034427;28;21003;-65
2023/06/16 05:03:19;;;;;;;8.97;6.23;;;;;;;;;;5033737;28;20651;-65
2023/06/16 05:05:49;;;;;;;13.10;6.83;;;;;;;;;;5032907;28;20628;-65
2023/06/16 05:08:19;;;;;;;7.53;6.07;;;;;;;;;;5042657;28;20631;-65
2023/06/16 05:10:49;;;;;;;7.07;5.93;;;;;;;;;;5040931;28;20658;-65
2023/06/16 05:13:18;;;;;;;12.33;6.10;;;;;;;;;;5050027;28;20621;-65
2023/06/16 05:15:46;;;;;;;5.83;5.40;;;;;;;;;;5032888;28;20627;-65
2023/06/16 05:18:14;;;;;;;6.90;6.20;;;;;;;;;;5033051;28;20637;-66
2023/06/16 05:20:43;;;;;;;8.60;5.90;;;;;;;;;;5031719;28;20640;-66
2023/06/16 05:23:11;;;;;;;6.07;5.40;;;;;;;;;;5032809;28;20666;-66
2023/06/16 05:25:42;;;;;;;7.00;6.30;;;;;;;;;;5029545;28;20632;-66
2023/06/16 05:28:10;;;;;;;9.90;6.23;;;;;;;;;;5030973;28;20981;-66
2023/06/16 05:30:38;;;;;;;7.27;6.03;;;;;;;;;;5032917;28;20598;-65
2023/06/16 05:33:07;;;;;;;8.40;6.20;;;;;;;;;;5045058;28;20636;-65
2023/06/16 05:35:35;;;;;;;5.30;4.60;;;;;;;;;;5031530;28;20646;-68
2023/06/16 05:38:04;;;;;;;10.17;6.20;;;;;;;;;;5031861;28;20620;-68
2023/06/16 05:40:32;;;;;;;7.70;5.23;;;;;;;;;;5035119;28;20604;-68
2023/06/16 05:43:02;;;;;;;5.30;4.80;;;;;;;;;;5041364;28;20636;-67
2023/06/16 05:45:30;;;;;;;6.13;5.43;;;;;;;;;;5037730;28;20641;-69
2023/06/16 05:47:59;;;;;;;7.60;6.33;;;;;;;;;;5023749;28;20643;-69
2023/06/16 05:50:28;;;;;;;9.97;6.10;;;;;;;;;;5032615;28;20629;-67
2023/06/16 05:52:56;;;;;;;8.10;5.27;;;;;;;;;;5036157;28;20665;-67
2023/06/16 05:55:26;;;;;;;5.80;5.30;;;;;;;;;;5041576;28;21203;-67
2023/06/16 05:57:58;;;;;;;6.03;5.43;;;;;;;;;;5031521;28;20599;-69
2023/06/16 06:00:28;;;;;;;9.03;6.43;;;;;;;;;;5032668;28;20628;-68
2023/06/16 06:03:04;;;;;;;13.20;7.30;;;;;;;;;;5039205;28;20611;-67
2023/06/16 06:05:36;;;;;;;7.60;6.17;;;;;;;;;;5046275;28;20636;-68
2023/06/16 06:08:05;;;;;;;6.37;5.73;;;;;;;;;;5032023;28;21145;-68
2023/06/16 06:10:35;;;;;;;8.10;6.40;;;;;;;;;;5031021;28;21223;-68
2023/06/16 06:13:04;;;;;;;9.80;6.93;;;;;;;;;;5026590;28;20624;-68
2023/06/16 06:15:35;;;;;;;7.13;6.00;;;;;;;;;;5030676;28;20610;-68
2023/06/16 06:18:09;;;;;;;15.37;7.73;;;;;;;;;;5030410;28;20945;-68
2023/06/16 06:20:41;;;;;;;7.93;5.63;;;;;;;;;;5031144;28;20788;-68
2023/06/16 06:23:10;;;;;;;7.60;5.30;;;;;;;;;;5030875;28;20201;-68
2023/06/16 06:25:40;;;;;;;6.60;6.10;;;;;;;;;;5031202;28;20674;-69
2023/06/16 06:28:09;;;;;;;8.60;5.73;;;;;;;;;;5031141;28;21162;-67
2023/06/16 06:30:39;;;;;;;11.40;6.50;;;;;;;;;;5030115;28;20651;-68
2023/06/16 06:33:08;;;;;;;7.00;6.20;;;;;;;;;;5031082;28;20619;-67
2023/06/16 06:35:36;;;;;;;7.03;6.40;;;;;;;;;;5030528;28;20644;-68
2023/06/16 06:38:05;;;;;;;13.33;6.43;;;;;;;;;;5030787;28;20613;-67
2023/06/16 06:40:35;;;;;;;7.90;6.33;;;;;;;;;;5014421;28;20627;-67
2023/06/16 06:43:04;;;;;;;6.97;5.67;;;;;;;;;;5030821;28;20604;-67
2023/06/16 06:45:46;;;;;;;6.80;6.20;;;;;;;;;;5030550;28;21228;-68
2023/06/16 06:48:14;;;;;;;13.43;6.23;;;;;;;;;;5014890;28;20623;-67
2023/06/16 06:50:43;;;;;;;12.40;5.90;;;;;;;;;;5021715;28;20603;-67
2023/06/16 06:53:11;;;;;;;10.33;6.27;;;;;;;;;;5033815;28;20988;-68
2023/06/16 06:55:40;;;;;;;13.20;7.20;;;;;;;;;;5030678;28;20595;-68
2023/06/16 06:58:08;;;;;;;6.93;6.10;;;;;;;;;;5031770;28;21024;-68
2023/06/16 07:00:36;;;;;;;7.73;6.90;;;;;;;;;;5030571;28;20641;-68
2023/06/16 07:03:06;;;;;;;10.17;5.93;;;;;;;;;;5030907;28;20623;-68
2023/06/16 07:05:37;;;;;;;7.87;5.63;;;;;;;;;;5030836;28;21004;-69
2023/06/16 07:08:05;;;;;;;7.20;5.97;;;;;;;;;;5031948;28;20670;-68
2023/06/16 07:10:33;;;;;;;5.87;5.47;;;;;;;;;;5030594;28;20705;-70
2023/06/16 07:13:01;;;;;;;7.00;6.07;;;;;;;;;;5022016;28;20640;-70
2023/06/16 07:15:30;;;;;;;9.10;6.57;;;;;;;;;;5031042;28;21228;-71
2023/06/16 07:17:58;;;;;;;6.70;5.80;;;;;;;;;;5031502;28;21208;-68
2023/06/16 07:20:27;;;;;;;8.10;6.37;;;;;;;;;;5031197;28;21254;-69
2023/06/16 07:22:56;;;;;;;7.00;5.90;;;;;;;;;;5023453;28;20681;-69
2023/06/16 07:25:24;;;;;;;9.13;5.30;;;;;;;;;;5030644;28;20656;-68
2023/06/16 07:27:52;;;;;;;7.07;6.10;;;;;;;;;;5031329;28;20652;-69
2023/06/16 07:30:20;;;;;;;8.57;5.40;;;;;;;;;;5029974;28;20630;-68
2023/06/16 07:32:50;;;;;;;9.43;6.03;;;;;;;;;;5011317;28;20637;-69
2023/06/16 07:35:19;;;;;;;9.50;5.63;;;;;;;;;;5024988;28;20644;-69
2023/06/16 07:37:49;;;;;;;6.20;5.57;;;;;;;;;;5028460;28;20635;-69
2023/06/16 07:40:17;;;;;;;6.90;6.20;;;;;;;;;;5031060;28;21197;-68
2023/06/16 07:42:45;;;;;;;8.43;6.00;;;;;;;;;;5030303;28;21174;-68
2023/06/16 07:45:15;;;;;;;11.20;6.10;;;;;;;;;;5031530;28;21037;-69
2023/06/16 07:47:45;;;;;;;6.50;5.90;;;;;;;;;;5030813;28;21087;-68
2023/06/16 07:50:13;;;;;;;7.33;5.73;;;;;;;;;;5031826;28;20665;-69
2023/06/16 07:52:42;;;;;;;9.03;6.70;;;;;;;;;;5031190;28;20624;-69
2023/06/16 07:55:12;;;;;;;7.00;6.20;;;;;;;;;;5031290;28;20620;-69
2023/06/16 07:57:40;;;;;;;11.77;6.00;;;;;;;;;;5036427;28;21166;-70
2023/06/16 08:00:11;;;;;;;6.97;5.10;;;;;;;;;;5031600;28;21053;-68
2023/06/16 08:02:41;;;;;;;6.20;5.80;;;;;;;;;;5029886;28;20670;-69
2023/06/16 08:05:09;;;;;;;9.93;6.13;;;;;;;;;;5030585;28;20660;-69
2023/06/16 08:07:37;;;;;;;6.77;6.13;;;;;;;;;;5031857;28;20616;-69
2023/06/16 08:10:06;;;;;;;7.03;5.80;;;;;;;;;;5028161;28;20652;-68
2023/06/16 08:12:36;;;;;;;5.90;5.50;;;;;;;;;;5030550;28;20990;-67
2023/06/16 08:15:05;;;;;;;6.17;5.57;;;;;;;;;;5030056;28;20620;-67
2023/06/16 08:17:33;;;;;;;6.53;5.40;;;;;;;;;;5029988;28;20634;-68
2023/06/16 08:20:01;;;;;;;6.47;5.87;;;;;;;;;;5030260;28;20631;-69
2023/06/16 08:22:29;;;;;;;6.93;5.67;;;;;;;;;;5024175;28;20633;-68
2023/06/16 08:24:57;;;;;;;10.30;5.17;;;;;;;;;;5022134;28;20659;-68
2023/06/16 08:27:26;;;;;;;8.20;5.83;;;;;;;;;;5030184;28;20993;-68
2023/06/16 08:29:55;;;;;;;6.70;6.00;;;;;;;;;;5030444;28;20627;-69
2023/06/16 08:32:23;;;;;;;6.63;5.20;;;;;;;;;;5030253;28;21074;-68
2023/06/16 08:34:52;;;;;;;8.70;6.30;;;;;;;;;;5041407;28;20780;-67
2023/06/16 08:37:20;;;;;;;8.23;5.83;;;;;;;;;;5033956;28;20654;-69
2023/06/16 08:39:48;;;;;;;9.13;5.93;;;;;;;;;;5030337;28;20627;-69
2023/06/16 08:42:17;;;;;;;6.43;5.70;;;;;;;;;;5030853;28;20628;-69
2023/06/16 08:44:46;;;;;;;6.27;5.67;;;;;;;;;;5030103;28;20674;-68
2023/06/16 08:47:15;;;;;;;8.30;6.13;;;;;;;;;;5031577;28;20619;-68
2023/06/16 08:49:44;;;;;;;6.03;5.33;;;;;;;;;;5030095;28;21081;-67
2023/06/16 08:52:16;;;;;;;5.60;5.10;;;;;;;;;;5015903;28;20623;-68
2023/06/16 08:54:48;;;;;;;7.10;5.70;;;;;;;;;;5030929;28;21005;-68
2023/06/16 08:57:18;;;;;;;5.50;5.03;;;;;;;;;;5031064;28;20588;-68
2023/06/16 08:59:50;;;;;;;5.50;5.10;;;;;;;;;;5020581;28;20679;-67
2023/06/16 09:02:21;;;;;;;5.67;5.27;;;;;;;;;;5051214;28;20612;-67
2023/06/16 09:04:49;;;;;;;12.93;5.33;;;;;;;;;;5054195;28;20615;-66
2023/06/16 09:07:19;;;;;;;6.67;5.40;;;;;;;;;;5049383;28;20696;-67
2023/06/16 09:09:47;;;;;;;7.13;6.50;;;;;;;;;;5045003;28;20737;-67
2023/06/16 09:12:15;;;;;;;10.50;5.60;;;;;;;;;;5023084;28;20695;-67
2023/06/16 09:14:49;;;;;;;7.20;5.67;;;;;;;;;;5029779;28;20623;-68
2023/06/16 09:17:24;;;;;;;5.53;4.60;;;;;;;;;;5015626;28;20610;-68
2023/06/16 09:19:55;;;;;;;7.23;6.03;;;;;;;;;;5028737;28;20604;-68
2023/06/16 09:22:26;;;;;;;10.13;5.20;;;;;;;;;;5031315;28;20602;-68
2023/06/16 09:24:55;;;;;;;8.17;5.23;;;;;;;;;;5030844;28;20599;-69
2023/06/16 09:27:24;;;;;;;7.20;4.70;;;;;;;;;;5031885;28;20616;-67
2023/06/16 09:29:53;;;;;;;6.50;6.00;;;;;;;;;;5033006;28;20693;-69
2023/06/16 09:32:21;;;;;;;5.30;4.80;;;;;;;;;;5033003;28;20616;-69
2023/06/16 09:34:49;;;;;;;4.90;4.50;;;;;;;;;;5033124;28;20664;-68
2023/06/16 09:37:21;;;;;;;5.53;4.50;;;;;;;;;;5028646;28;20631;-68
2023/06/16 09:39:49;;;;;;;8.03;5.57;;;;;;;;;;5030425;28;20620;-69
2023/06/16 09:42:18;;;;;;;5.67;5.20;;;;;;;;;;5033021;28;20616;-69
2023/06/16 09:44:46;;;;;;;7.97;5.30;;;;;;;;;;5033011;28;20982;-69
2023/06/16 09:47:15;;;;;;;9.53;5.13;;;;;;;;;;5023082;28;20652;-69
2023/06/16 09:49:45;;;;;;;4.87;4.57;;;;;;;;;;5033629;28;20623;-68
2023/06/16 09:52:14;;;;;;;5.87;5.33;;;;;;;;;;5031669;28;20964;-68
2023/06/16 09:54:43;;;;;;;5.33;4.83;;;;;;;;;;5031141;28;21032;-68
2023/06/16 09:57:15;;;;;;;5.17;4.70;;;;;;;;;;5031050;28;20619;-68
2023/06/16 09:59:43;;;;;;;7.00;5.33;;;;;;;;;;5032230;28;20583;-67
2023/06/16 10:02:12;;;;;;;5.83;5.43;;;;;;;;;;5031192;28;20630;-67
2023/06/16 10:04:41;;;;;;;7.27;5.13;;;;;;;;;;5028500;28;20631;-67
2023/06/16 10:07:09;;;;;;;8.87;4.80;;;;;;;;;;5029794;28;20651;-67
2023/06/16 10:09:41;;;;;;;9.93;6.50;;;;;;;;;;5032775;28;20715;-67
2023/06/16 10:12:12;;;;;;;5.67;5.10;;;;;;;;;;5027761;28;20981;-66
2023/06/16 10:14:42;;;;;;;8.33;5.40;;;;;;;;;;5032948;28;20585;-67
2023/06/16 10:17:11;;;;;;;6.00;5.50;;;;;;;;;;5038213;28;20616;-69
2023/06/16 10:19:42;;;;;;;6.80;6.20;;;;;;;;;;5041062;28;20612;-66
2023/06/16 10:22:10;;;;;;;6.13;5.60;;;;;;;;;;5032950;28;20961;-67
2023/06/16 10:24:39;;;;;;;7.17;6.27;;;;;;;;;;5032958;28;20622;-67
2023/06/16 10:27:08;;;;;;;6.10;5.60;;;;;;;;;;5033066;28;20655;-66
2023/06/16 10:29:38;;;;;;;8.83;6.63;;;;;;;;;;5032410;28;20792;-66
2023/06/16 10:32:07;;;;;;;8.13;5.33;;;;;;;;;;5025334;28;20650;-66
2023/06/16 10:34:36;;;;;;;6.00;5.40;;;;;;;;;;5030974;28;20674;-67
2023/06/16 10:37:04;;;;;;;12.70;6.07;;;;;;;;;;5032414;28;20616;-65
2023/06/16 10:39:42;;;;;;;14.87;5.70;;;;;;;;;;5031867;28;20607;-66
2023/06/16 10:42:11;;;;;;;14.60;5.87;;;;;;;;;;5033079;28;20645;-67
2023/06/16 10:44:42;;;;;;;10.03;5.63;;;;;;;;;;5024586;28;20643;-67
2023/06/16 10:47:37;;;;;;;6.00;5.10;;;;;;;;;;5032807;28;20635;-67
2023/06/16 10:50:06;;;;;;;5.63;5.13;;;;;;;;;;5016992;28;20628;-67
2023/06/16 10:52:51;;;;;;;12.40;6.57;;;;;;;;;;5023112;28;20642;-66
2023/06/16 10:55:26;;;;;;;12.43;6.50;;;;;;;;;;5029668;28;20610;-70
2023/06/16 10:58:15;;;;;;;5.87;5.47;;;;;;;;;;5030475;28;20611;-68
2023/06/16 11:00:45;;;;;;;6.77;5.93;;;;;;;;;;5031563;28;20670;-68
2023/06/16 11:03:14;;;;;;;7.93;6.70;;;;;;;;;;5034965;28;20663;-69
2023/06/16 11:05:46;;;;;;;11.00;7.30;;;;;;;;;;5030007;28;20631;-69
2023/06/16 11:08:15;;;;;;;5.40;4.73;;;;;;;;;;5030208;28;20600;-67
2023/06/16 11:10:50;;;;;;;6.97;6.07;;;;;;;;;;5012473;28;21234;-69
2023/06/16 11:13:19;;;;;;;5.87;5.47;;;;;;;;;;5012263;28;20642;-68
2023/06/16 11:15:49;;;;;;;7.10;6.33;;;;;;;;;;5011824;28;20612;-68
2023/06/16 11:18:17;;;;;;;6.63;5.67;;;;;;;;;;5012335;28;20624;-68
2023/06/16 11:20:46;;;;;;;6.40;5.80;;;;;;;;;;5009978;28;20676;-69
2023/06/16 11:23:14;;;;;;;6.07;5.53;;;;;;;;;;5022943;28;20616;-67
2023/06/16 11:25:43;;;;;;;7.00;6.30;;;;;;;;;;5037320;28;20615;-69
2023/06/16 11:28:11;;;;;;;5.67;5.17;;;;;;;;;;5034584;28;20627;-69
2023/06/16 11:30:39;;;;;;;6.43;5.83;;;;;;;;;;5041212;28;21220;-68
2023/06/16 11:33:09;;;;;;;6.80;6.20;;;;;;;;;;5039724;28;20627;-68
2023/06/16 11:35:37;;;;;;;8.10;6.33;;;;;;;;;;5041039;28;20650;-68
2023/06/16 11:38:06;;;;;;;6.00;5.40;;;;;;;;;;5035755;28;21115;-70
2023/06/16 11:40:35;;;;;;;8.90;6.20;;;;;;;;;;5032508;28;20622;-69
2023/06/16 11:43:04;;;;;;;7.80;5.90;;;;;;;;;;5033095;28;21174;-67
2023/06/16 11:45:33;;;;;;;9.00;6.60;;;;;;;;;;5029718;28;20616;-69
2023/06/16 11:48:02;;;;;;;8.20;5.93;;;;;;;;;;5034088;28;20670;-69
2023/06/16 11:50:32;;;;;;;6.77;6.17;;;;;;;;;;5030394;28;21243;-68
2023/06/16 11:53:00;;;;;;;6.33;5.73;;;;;;;;;;5040137;28;20713;-69
2023/06/16 11:55:29;;;;;;;6.60;5.90;;;;;;;;;;5025822;28;21159;-68
2023/06/16 11:57:57;;;;;;;24.80;22.47;;;;;;;;;;5026819;28;20644;-69
2023/06/16 12:00:26;;;;;;;6.40;6.00;;;;;;;;;;5028465;28;20608;-68
2023/06/16 12:02:55;;;;;;;11.13;5.67;;;;;;;;;;5033422;28;20700;-68
2023/06/16 12:05:25;;;;;;;6.23;5.63;;;;;;;;;;5044007;28;22149;-69
2023/06/16 12:07:54;;;;;;;6.23;5.70;;;;;;;;;;5038116;28;20643;-69
2023/06/16 12:10:24;;;;;;;6.70;6.30;;;;;;;;;;5039927;28;21227;-69
2023/06/16 12:12:52;;;;;;;5.80;5.50;;;;;;;;;;5031417;28;21028;-68
2023/06/16 12:15:21;;;;;;;6.80;6.17;;;;;;;;;;5029507;28;20686;-68
2023/06/16 12:17:50;;;;;;;8.20;6.87;;;;;;;;;;5036792;28;20982;-68
2023/06/16 12:20:19;;;;;;;5.90;5.60;;;;;;;;;;5038855;28;20607;-68
2023/06/16 12:22:47;;;;;;;5.83;5.53;;;;;;;;;;5036640;28;20624;-69
2023/06/16 12:25:17;;;;;;;7.10;6.43;;;;;;;;;;5032035;28;20626;-68
2023/06/16 12:27:45;;;;;;;8.80;6.13;;;;;;;;;;5030387;28;20706;-68
2023/06/16 12:30:14;;;;;;;7.33;6.20;;;;;;;;;;5031095;28;20622;-69
2023/06/16 12:32:43;;;;;;;6.30;5.90;;;;;;;;;;5030618;28;20620;-69
2023/06/16 12:35:12;;;;;;;6.83;6.00;;;;;;;;;;5030778;28;20654;-69
2023/06/16 12:37:41;;;;;;;7.13;6.50;;;;;;;;;;5030881;28;20615;-68
2023/06/16 12:40:14;;;;;;;8.03;6.53;;;;;;;;;;5030302;28;20620;-68
2023/06/16 12:42:43;;;;;;;7.20;6.50;;;;;;;;;;5030182;28;21146;-68
2023/06/16 12:45:12;;;;;;;8.93;6.20;;;;;;;;;;5030138;28;20978;-68
2023/06/16 12:47:40;;;;;;;7.47;6.77;;;;;;;;;;5030711;28;21010;-68
2023/06/16 12:50:09;;;;;;;8.60;5.90;;;;;;;;;;5030335;28;20952;-68
2023/06/16 12:52:37;;;;;;;8.63;6.43;;;;;;;;;;5030940;28;20693;-68
2023/06/16 12:55:05;;;;;;;10.57;6.53;;;;;;;;;;5030714;28;20622;-69
2023/06/16 12:57:35;;;;;;;11.40;6.10;;;;;;;;;;5034120;28;20596;-69
2023/06/16 13:00:05;;;;;;;12.53;7.00;;;;;;;;;;5033854;28;20654;-68
2023/06/16 13:02:36;;;;;;;7.93;6.20;;;;;;;;;;5032632;28;20628;-68
2023/06/16 13:05:04;;;;;;;10.50;6.03;;;;;;;;;;5033259;28;20622;-68
2023/06/16 13:07:34;;;;;;;6.87;6.33;;;;;;;;;;5034667;28;20655;-69
2023/06/16 13:10:02;;;;;;;6.80;6.23;;;;;;;;;;5033282;28;20650;-68
2023/06/16 13:12:32;;;;;;;7.23;6.57;;;;;;;;;;5034173;28;20964;-69
2023/06/16 13:15:00;;;;;;;6.93;6.40;;;;;;;;;;5034310;28;20943;-67
2023/06/16 13:17:29;;;;;;;7.17;6.67;;;;;;;;;;5032539;28;20622;-70
2023/06/16 13:19:58;;;;;;;6.40;6.00;;;;;;;;;;5033717;28;20612;-69
2023/06/16 13:22:27;;;;;;;6.30;5.90;;;;;;;;;;5033731;28;20619;-67
2023/06/16 13:24:55;;;;;;;6.80;6.10;;;;;;;;;;5033633;28;20615;-67
2023/06/16 13:27:23;;;;;;;25.47;12.40;;;;;;;;;;5033777;28;20660;-66
2023/06/16 13:29:51;;;;;;;7.40;6.23;;;;;;;;;;5021976;28;20616;-67
2023/06/16 13:32:20;;;;;;;8.43;6.80;;;;;;;;;;5012019;28;20625;-69
2023/06/16 13:34:50;;;;;;;7.00;6.30;;;;;;;;;;5013520;28;20648;-69
2023/06/16 13:37:18;;;;;;;19.07;7.50;;;;;;;;;;5021018;28;20603;-68
2023/06/16 13:39:46;;;;;;;7.80;6.10;;;;;;;;;;5033296;28;20989;-68
2023/06/16 13:42:14;;;;;;;7.27;6.67;;;;;;;;;;5033312;28;20603;-69
2023/06/16 13:44:44;;;;;;;9.03;7.23;;;;;;;;;;5033690;28;20620;-68
2023/06/16 13:47:12;;;;;;;14.30;8.77;;;;;;;;;;5033161;28;20658;-68
2023/06/16 13:49:40;;;;;;;9.40;6.97;;;;;;;;;;5033655;28;20622;-68
2023/06/16 13:52:10;;;;;;;7.67;6.40;;;;;;;;;;5032709;28;20980;-69
2023/06/16 13:54:40;;;;;;;11.37;6.30;;;;;;;;;;5033235;28;20606;-69
2023/06/16 13:57:08;;;;;;;7.70;5.87;;;;;;;;;;5033049;28;20608;-68
2023/06/16 13:59:37;;;;;;;8.10;6.47;;;;;;;;;;5033522;28;20608;-69
2023/06/16 14:02:05;;;;;;;6.43;5.93;;;;;;;;;;5030535;28;20608;-68
2023/06/16 14:04:33;;;;;;;7.67;7.07;;;;;;;;;;5032527;28;20622;-68
2023/06/16 14:07:01;;;;;;;7.20;6.30;;;;;;;;;;5031871;28;21011;-68
2023/06/16 14:09:31;;;;;;;6.40;5.90;;;;;;;;;;5027154;28;21248;-69
2023/06/16 14:11:59;;;;;;;7.03;5.87;;;;;;;;;;5019098;28;20980;-68
2023/06/16 14:14:27;;;;;;;6.70;6.20;;;;;;;;;;5024994;28;21180;-69
2023/06/16 14:16:55;;;;;;;7.93;6.00;;;;;;;;;;5032890;28;20662;-69
2023/06/16 14:19:23;;;;;;;7.33;6.80;;;;;;;;;;5032842;28;20620;-67
2023/06/16 14:21:52;;;;;;;6.50;6.10;;;;;;;;;;5033033;28;20616;-68
2023/06/16 14:24:20;;;;;;;7.53;6.10;;;;;;;;;;5032796;28;20607;-69
2023/06/16 14:26:50;;;;;;;8.30;6.10;;;;;;;;;;5033009;28;20919;-68
2023/06/16 14:29:18;;;;;;;7.07;6.23;;;;;;;;;;5031773;28;20651;-68
2023/06/16 14:31:46;;;;;;;6.27;5.67;;;;;;;;;;5038137;28;20627;-69
2023/06/16 14:34:14;;;;;;;6.20;5.60;;;;;;;;;;5032837;28;20626;-68
2023/06/16 14:36:43;;;;;;;7.23;6.63;;;;;;;;;;5039484;28;20677;-69
2023/06/16 14:39:11;;;;;;;7.33;5.70;;;;;;;;;;5039397;28;20996;-69
2023/06/16 14:41:39;;;;;;;6.50;6.00;;;;;;;;;;5035415;28;20624;-69
2023/06/16 14:44:09;;;;;;;6.13;5.73;;;;;;;;;;5027399;28;20636;-69
2023/06/16 14:46:37;;;;;;;8.20;6.13;;;;;;;;;;5032396;28;20612;-69
2023/06/16 14:49:05;;;;;;;6.50;6.00;;;;;;;;;;5039756;28;20677;-68
2023/06/16 14:51:36;;;;;;;6.67;6.17;;;;;;;;;;5032716;28;20628;-69
2023/06/16 14:54:04;;;;;;;6.47;6.07;;;;;;;;;;5031212;28;20955;-68